Time;durP1;ratioP1;P1;durP2;ratioP2;P2;SDS_P1;SDS_P2;PMS_P1;PMS_P2;Temp;Humidity;BMP_temperature;BMP_pressure;BME280_temperature;BME280_humidity;BME280_pressure;Samples;Min_cycle;Max_cycle;Signal;HPM_P1;HPM_P2
2022/01/28 00:00:19;;;;;;;36.95;32.92;;;2.50;82.30;;;;;;5040661;28;20087;-66
2022/01/28 00:05:19;;;;;;;33.90;30.38;;;2.60;82.30;;;;;;5034595;28;20033;-65
2022/01/28 00:07:45;;;;;;;37.35;33.17;;;2.60;82.40;;;;;;5033973;28;20175;-65
2022/01/28 00:10:12;;;;;;;37.42;33.47;;;2.60;82.40;;;;;;5035849;28;20494;-65
2022/01/28 00:13:02;;;;;;;33.72;30.60;;;2.60;82.30;;;;;;5053437;28;20035;-65
2022/01/28 00:39:31;;;;;;;32.85;29.23;;;2.70;82.00;;;;;;5054519;28;20107;-64
2022/01/28 00:41:57;;;;;;;34.92;31.30;;;2.70;82.00;;;;;;5053080;28;20032;-64
2022/01/28 00:44:23;;;;;;;37.08;33.13;;;2.70;82.00;;;;;;5053027;28;20459;-65
2022/01/28 00:46:48;;;;;;;35.22;30.55;;;2.70;82.00;;;;;;5052451;28;20439;-65
2022/01/28 00:49:14;;;;;;;34.17;30.63;;;2.70;82.00;;;;;;5054170;28;20112;-65
2022/01/28 00:51:40;;;;;;;34.47;30.85;;;2.70;81.90;;;;;;5038588;28;20452;-65
2022/01/28 00:54:05;;;;;;;32.30;29.02;;;2.70;81.80;;;;;;5034018;28;20029;-65
2022/01/28 00:56:31;;;;;;;36.63;32.88;;;2.70;81.70;;;;;;5034004;28;20083;-65
2022/01/28 00:58:57;;;;;;;38.17;34.33;;;2.70;81.70;;;;;;5032831;28;20079;-65
2022/01/28 01:01:23;;;;;;;36.58;32.90;;;2.70;81.70;;;;;;5032483;28;20056;-65
2022/01/28 01:03:48;;;;;;;37.97;34.50;;;2.70;81.70;;;;;;5034230;28;20448;-65
2022/01/28 01:06:14;;;;;;;34.47;31.25;;;2.70;81.60;;;;;;5032289;28;20387;-66
2022/01/28 01:08:40;;;;;;;33.20;29.45;;;2.70;81.60;;;;;;5032636;28;20033;-66
2022/01/28 01:11:06;;;;;;;33.47;30.15;;;2.70;81.60;;;;;;5033999;28;20021;-67
2022/01/28 01:13:38;;;;;;;40.78;34.38;;;2.80;81.70;;;;;;5033739;28;20376;-65
2022/01/28 01:16:05;;;;;;;39.28;33.97;;;2.80;81.60;;;;;;5033067;28;20025;-65
2022/01/28 01:18:55;;;;;;;34.38;30.90;;;2.90;81.60;;;;;;5033804;28;20072;-66
2022/01/28 01:21:24;;;;;;;32.35;28.90;;;2.90;81.50;;;;;;5033517;28;20025;-65
2022/01/28 01:23:52;;;;;;;36.00;32.42;;;2.90;81.40;;;;;;5033768;28;20025;-65
2022/01/28 01:26:19;;;;;;;34.67;31.60;;;2.90;81.40;;;;;;5032066;28;20059;-65
2022/01/28 01:28:46;;;;;;;35.28;31.73;;;2.90;81.30;;;;;;5033712;28;20030;-66
2022/01/28 01:31:17;;;;;;;34.38;30.67;;;2.90;81.40;;;;;;5032198;28;20026;-66
2022/01/28 01:33:53;;;;;;;35.33;29.20;;;2.90;81.40;;;;;;5032713;28;20048;-65
2022/01/28 01:36:18;;;;;;;30.55;27.52;;;2.90;81.40;;;;;;5032553;28;20033;-66
2022/01/28 01:38:44;;;;;;;33.30;29.73;;;2.90;81.40;;;;;;5032272;28;20379;-66
2022/01/28 01:41:16;;;;;;;33.00;29.73;;;2.90;81.40;;;;;;5032782;28;20109;-66
2022/01/28 01:44:13;;;;;;;35.92;32.40;;;2.90;81.40;;;;;;5032712;28;20052;-66
2022/01/28 01:52:05;;;;;;;32.15;29.05;;;2.90;81.20;;;;;;5053753;28;20375;-66
2022/01/28 01:54:38;;;;;;;39.08;33.72;;;2.90;81.30;;;;;;5053480;28;20028;-67
2022/01/28 01:57:06;;;;;;;38.30;34.47;;;2.90;81.50;;;;;;5053182;28;20071;-66
2022/01/28 01:59:32;;;;;;;38.90;35.33;;;2.90;81.50;;;;;;5051971;28;20487;-66
2022/01/28 02:01:57;;;;;;;36.67;32.75;;;2.90;81.50;;;;;;5053827;28;20421;-65
2022/01/28 02:04:23;;;;;;;34.72;31.52;;;2.80;81.40;;;;;;5053268;28;20025;-65
2022/01/28 02:06:50;;;;;;;34.33;30.80;;;2.80;81.50;;;;;;5052973;28;20482;-65
2022/01/28 02:09:15;;;;;;;38.72;34.65;;;2.80;81.50;;;;;;5053108;28;20379;-65
2022/01/28 02:11:42;;;;;;;36.35;29.88;;;2.80;81.60;;;;;;5053153;28;20029;-66
2022/01/28 02:14:08;;;;;;;40.53;36.05;;;2.80;81.70;;;;;;5054418;28;20021;-65
2022/01/28 02:16:34;;;;;;;35.25;31.92;;;2.80;81.70;;;;;;5056172;28;20075;-65
2022/01/28 02:19:00;;;;;;;37.22;31.13;;;2.80;81.70;;;;;;5055673;28;20025;-65
2022/01/28 02:21:26;;;;;;;37.20;32.65;;;2.80;81.70;;;;;;5055643;28;20021;-66
2022/01/28 02:23:58;;;;;;;39.38;33.80;;;2.80;81.70;;;;;;5055685;28;20033;-65
2022/01/28 02:26:24;;;;;;;39.78;35.35;;;2.70;81.70;;;;;;5055224;28;20057;-65
2022/01/28 02:28:54;;;;;;;41.60;37.00;;;2.60;81.90;;;;;;5055452;28;20119;-65
2022/01/28 02:31:24;;;;;;;45.15;35.45;;;2.60;82.10;;;;;;5055421;28;20025;-65
2022/01/28 02:33:52;;;;;;;38.92;34.22;;;2.50;82.30;;;;;;5055406;28;20443;-65
2022/01/28 02:36:18;;;;;;;39.13;35.03;;;2.50;82.50;;;;;;5056877;28;20032;-65
2022/01/28 02:38:43;;;;;;;41.83;33.63;;;2.50;82.50;;;;;;5055322;28;20028;-65
2022/01/28 02:41:09;;;;;;;39.50;35.28;;;2.50;82.70;;;;;;5056767;28;20025;-66
2022/01/28 02:43:44;;;;;;;45.17;37.97;;;2.50;82.90;;;;;;5055143;28;20040;-66
2022/01/28 02:46:16;;;;;;;47.38;36.45;;;2.40;82.80;;;;;;5056439;28;20029;-66
2022/01/28 02:48:53;;;;;;;39.55;35.47;;;2.40;83.00;;;;;;5056572;28;20021;-66
2022/01/28 02:51:21;;;;;;;45.22;36.13;;;2.40;83.10;;;;;;5056308;28;20029;-66
2022/01/28 02:56:20;;;;;;;48.83;39.95;;;2.40;83.40;;;;;;5056522;28;20033;-66
2022/01/28 02:58:47;;;;;;;50.17;38.45;;;2.40;83.50;;;;;;5056289;28;20048;-66
2022/01/28 03:01:15;;;;;;;43.88;38.95;;;2.40;83.50;;;;;;5054887;28;20037;-66
2022/01/28 03:03:43;;;;;;;44.17;39.65;;;2.40;83.60;;;;;;5055070;28;20032;-66
2022/01/28 03:06:09;;;;;;;47.78;42.50;;;2.40;83.80;;;;;;5054661;28;20471;-66
2022/01/28 03:08:35;;;;;;;46.80;40.53;;;2.40;84.00;;;;;;5054441;28;20056;-66
2022/01/28 03:16:19;;;;;;;54.33;42.25;;;2.40;84.30;;;;;;5056034;28;20029;-66
2022/01/28 03:19:42;;;;;;;52.50;39.45;;;2.40;84.40;;;;;;5054604;28;20029;-66
2022/01/28 03:23:57;;;;;;;52.75;43.03;;;2.50;84.60;;;;;;5055524;28;20740;-67
2022/01/28 03:26:25;;;;;;;53.47;43.72;;;2.50;84.60;;;;;;5054071;28;20075;-66
2022/01/28 03:28:52;;;;;;;54.25;40.97;;;2.50;84.60;;;;;;5054645;28;20445;-66
2022/01/28 03:31:18;;;;;;;52.63;38.10;;;2.50;84.70;;;;;;5055397;28;20029;-65
2022/01/28 03:33:44;;;;;;;42.90;38.45;;;2.50;84.80;;;;;;5055323;28;20032;-66
2022/01/28 03:36:11;;;;;;;53.80;38.03;;;2.50;84.80;;;;;;5055577;28;20116;-66
2022/01/28 03:38:40;;;;;;;54.53;41.30;;;2.50;84.80;;;;;;5054331;28;20029;-66
2022/01/28 03:41:12;;;;;;;52.47;41.35;;;2.50;84.90;;;;;;5053916;28;20059;-65
2022/01/28 03:43:38;;;;;;;46.05;37.42;;;2.50;85.00;;;;;;5054026;28;20052;-65
2022/01/28 03:46:04;;;;;;;62.60;40.90;;;2.50;85.00;;;;;;5053975;28;20040;-66
2022/01/28 03:48:29;;;;;;;54.13;41.22;;;2.50;85.00;;;;;;5053784;28;20033;-67
2022/01/28 03:50:55;;;;;;;46.33;39.03;;;2.50;85.10;;;;;;5055076;28;20021;-66
2022/01/28 03:53:20;;;;;;;42.53;37.55;;;2.50;85.10;;;;;;5054006;28;20074;-66
2022/01/28 03:55:46;;;;;;;51.17;38.22;;;2.60;85.30;;;;;;5055104;28;20422;-66
2022/01/28 03:58:15;;;;;;;46.80;37.63;;;2.60;85.20;;;;;;5053795;28;20025;-66
2022/01/28 04:00:41;;;;;;;53.40;41.85;;;2.60;85.30;;;;;;5053993;28;20107;-67
2022/01/28 04:03:12;;;;;;;57.10;41.95;;;2.60;85.20;;;;;;5054068;28;20490;-67
2022/01/28 04:13:55;;;;;;;46.00;39.03;;;2.70;85.20;;;;;;5054949;28;20085;-65
2022/01/28 04:18:47;;;;;;;50.75;42.22;;;2.70;85.20;;;;;;5054717;28;20029;-65
2022/01/28 04:21:13;;;;;;;43.78;37.45;;;2.70;85.10;;;;;;5053026;28;20067;-66
2022/01/28 04:23:39;;;;;;;62.47;41.45;;;2.70;85.30;;;;;;5053151;28;20498;-65
2022/01/28 04:26:04;;;;;;;54.70;40.85;;;2.70;85.20;;;;;;5054157;28;20098;-65
2022/01/28 04:28:30;;;;;;;61.35;44.90;;;2.80;85.30;;;;;;5054501;28;20033;-66
2022/01/28 04:30:56;;;;;;;50.13;42.45;;;2.80;85.30;;;;;;5052861;28;20025;-65
2022/01/28 04:33:22;;;;;;;46.08;40.88;;;2.80;85.00;;;;;;5053725;28;20060;-65
2022/01/28 04:35:51;;;;;;;52.97;38.75;;;2.70;85.30;;;;;;5051691;28;20029;-65
2022/01/28 04:40:56;;;;;;;50.75;40.70;;;2.70;85.40;;;;;;5053536;28;20108;-65
2022/01/28 04:43:29;;;;;;;58.63;42.20;;;2.70;85.40;;;;;;5053397;28;20484;-65
2022/01/28 04:46:07;;;;;;;63.22;44.15;;;2.70;85.40;;;;;;5051353;28;20486;-66
2022/01/28 04:49:22;;;;;;;45.53;39.35;;;2.70;85.40;;;;;;5049740;28;20033;-66
2022/01/28 05:14:43;;;;;;;50.83;38.95;;;2.60;85.50;;;;;;5053728;28;20104;-66
2022/01/28 05:27:38;;;;;;;52.70;41.17;;;2.50;85.70;;;;;;5053204;28;20060;-65
2022/01/28 05:30:06;;;;;;;43.67;39.08;;;2.40;85.70;;;;;;5053370;28;20021;-65
2022/01/28 05:32:32;;;;;;;48.53;40.42;;;2.40;85.70;;;;;;5052604;28;20017;-65
2022/01/28 05:34:57;;;;;;;54.58;42.00;;;2.40;85.80;;;;;;5052706;28;20505;-65
2022/01/28 05:37:23;;;;;;;45.00;38.67;;;2.30;85.70;;;;;;5050695;28;20415;-66
2022/01/28 05:39:49;;;;;;;53.00;40.92;;;2.30;85.80;;;;;;5050393;28;20384;-66
2022/01/28 05:42:14;;;;;;;50.60;39.95;;;2.30;86.10;;;;;;5050494;28;20060;-66
2022/01/28 05:44:40;;;;;;;50.88;42.15;;;2.20;86.00;;;;;;5050015;28;20028;-66
2022/01/28 05:47:06;;;;;;;50.60;41.78;;;2.20;86.10;;;;;;5051154;28;20198;-66
2022/01/28 05:49:31;;;;;;;51.90;40.63;;;2.20;86.20;;;;;;5055206;28;20033;-65
2022/01/28 05:51:57;;;;;;;50.05;40.83;;;2.20;86.30;;;;;;5054586;28;20021;-65
2022/01/28 05:54:24;;;;;;;61.47;45.63;;;2.20;86.40;;;;;;5055562;28;20029;-66
2022/01/28 05:56:49;;;;;;;49.33;39.95;;;2.20;87.00;;;;;;5057123;28;20029;-68
2022/01/28 05:59:15;;;;;;;50.13;40.25;;;2.20;86.50;;;;;;5057428;28;20040;-68
2022/01/28 06:01:41;;;;;;;46.65;40.92;;;2.20;86.50;;;;;;5055546;28;20032;-68
2022/01/28 06:04:06;;;;;;;65.82;47.63;;;2.30;86.80;;;;;;5054980;28;20025;-63
2022/01/28 06:06:33;;;;;;;58.08;39.78;;;2.30;86.60;;;;;;5053091;28;20029;-65
2022/01/28 06:08:59;;;;;;;48.78;40.35;;;2.30;86.70;;;;;;5051280;28;20124;-64
2022/01/28 06:11:24;;;;;;;49.42;42.90;;;2.40;86.70;;;;;;5055060;28;20115;-64
2022/01/28 06:13:51;;;;;;;53.40;43.10;;;2.30;86.50;;;;;;5055904;28;20025;-65
2022/01/28 06:16:18;;;;;;;46.63;41.58;;;2.30;86.60;;;;;;5053427;28;20025;-65
2022/01/28 06:18:44;;;;;;;44.80;40.28;;;2.30;86.60;;;;;;5053603;28;20025;-65
2022/01/28 06:21:11;;;;;;;51.50;41.35;;;2.40;86.70;;;;;;5056694;28;20044;-64
2022/01/28 06:23:37;;;;;;;51.45;44.08;;;2.40;86.70;;;;;;5056584;28;20100;-68
2022/01/28 06:26:04;;;;;;;49.75;44.63;;;2.40;86.70;;;;;;5055078;28;20049;-68
2022/01/28 06:28:31;;;;;;;46.28;41.28;;;2.40;86.90;;;;;;5054855;28;20033;-66
2022/01/28 06:30:58;;;;;;;55.65;43.90;;;2.40;86.90;;;;;;5054009;28;20134;-69
2022/01/28 06:33:24;;;;;;;49.33;43.03;;;2.40;86.80;;;;;;5055840;28;20025;-68
2022/01/28 06:35:50;;;;;;;52.95;38.78;;;2.40;86.70;;;;;;5047666;28;20076;-68
2022/01/28 06:38:16;;;;;;;51.25;43.08;;;2.50;86.90;;;;;;5041844;28;20520;-69
2022/01/28 06:40:42;;;;;;;63.58;43.58;;;2.50;86.80;;;;;;5036378;28;20030;-68
2022/01/28 06:43:09;;;;;;;48.75;43.35;;;2.50;86.90;;;;;;5034698;28;20453;-68
2022/01/28 06:45:36;;;;;;;52.00;42.97;;;2.50;86.90;;;;;;5039352;28;20067;-69
2022/01/28 06:48:01;;;;;;;46.42;41.22;;;2.50;86.90;;;;;;5050491;28;20037;-67
2022/01/28 06:50:27;;;;;;;48.97;43.90;;;2.50;86.80;;;;;;5050881;28;20475;-68
2022/01/28 06:52:53;;;;;;;62.65;44.95;;;2.50;86.70;;;;;;5054494;28;20021;-67
2022/01/28 06:55:18;;;;;;;52.53;44.10;;;2.50;86.80;;;;;;5054486;28;20028;-68
2022/01/28 06:57:44;;;;;;;55.83;41.55;;;2.60;86.80;;;;;;5054652;28;20018;-68
2022/01/28 07:00:11;;;;;;;52.80;45.90;;;2.60;86.90;;;;;;5052809;28;20032;-69
2022/01/28 07:02:38;;;;;;;54.83;42.13;;;2.60;86.80;;;;;;5054358;28;20033;-69
2022/01/28 07:05:04;;;;;;;50.00;41.50;;;2.70;87.00;;;;;;5052988;28;20036;-68
2022/01/28 07:07:31;;;;;;;52.08;43.65;;;2.70;86.90;;;;;;5051476;28;20035;-67
2022/01/28 07:09:56;;;;;;;52.97;45.88;;;2.80;86.70;;;;;;5052774;28;20029;-68
2022/01/28 07:12:22;;;;;;;53.15;45.97;;;2.80;86.70;;;;;;5054244;28;20151;-68
2022/01/28 07:14:48;;;;;;;59.20;45.47;;;2.80;86.70;;;;;;5054209;28;20040;-69
2022/01/28 11:25:00;;;;;;;181.77;96.00;;;3.70;88.30;;;;;;5131933;27;20437;-67
2022/01/28 11:27:36;;;;;;;191.15;100.88;;;3.70;90.20;;;;;;5113589;28;20121;-68
2022/01/28 11:30:20;;;;;;;169.70;87.20;;;3.80;91.10;;;;;;5113831;28;20024;-69
2022/01/28 11:33:08;;;;;;;121.30;83.13;;;4.00;91.50;;;;;;5132197;28;20484;-70
2022/01/28 11:35:37;;;;;;;135.80;81.15;;;4.30;91.60;;;;;;5135705;28;20023;-68
2022/01/28 11:38:26;;;;;;;130.65;76.07;;;4.50;91.70;;;;;;5149943;28;20028;-71
2022/01/28 11:41:11;;;;;;;121.78;70.10;;;4.70;91.50;;;;;;5126437;28;20106;-70
2022/01/28 11:43:45;;;;;;;85.95;60.67;;;4.90;91.30;;;;;;5131814;28;20477;-69
2022/01/28 11:46:20;;;;;;;69.68;52.42;;;5.10;91.10;;;;;;5111695;28;20063;-69
2022/01/28 11:48:51;;;;;;;66.68;49.22;;;5.20;90.80;;;;;;5110964;28;20077;-69
2022/01/28 11:51:22;;;;;;;54.22;45.72;;;5.30;90.80;;;;;;5092960;28;20030;-69
2022/01/28 11:53:54;;;;;;;78.88;50.63;;;5.50;90.70;;;;;;5110984;28;20038;-71
2022/01/28 11:56:21;;;;;;;112.00;64.50;;;5.60;90.60;;;;;;5092315;28;20051;-71
2022/01/28 11:59:01;;;;;;;75.55;49.95;;;5.70;90.40;;;;;;5111547;28;20034;-70
2022/01/28 12:01:36;;;;;;;58.97;46.10;;;5.70;90.10;;;;;;5111176;28;20032;-68
2022/01/28 12:04:34;;;;;;;76.85;54.60;;;5.80;89.70;;;;;;5110532;28;20085;-67
2022/01/28 12:07:21;;;;;;;78.32;57.13;;;5.80;89.20;;;;;;5110987;28;20365;-66
2022/01/28 12:09:55;;;;;;;63.28;46.67;;;5.80;88.40;;;;;;5110692;28;20370;-66
2022/01/28 12:12:40;;;;;;;62.20;42.97;;;5.70;87.40;;;;;;5110817;28;20024;-65
2022/01/28 12:15:12;;;;;;;63.25;41.47;;;5.70;86.70;;;;;;5110659;28;20478;-66
2022/01/28 12:17:42;;;;;;;89.97;52.28;;;5.60;86.30;;;;;;5110700;28;20020;-69
2022/01/28 12:20:24;;;;;;;88.95;51.28;;;5.50;86.00;;;;;;5092579;28;20046;-66
2022/01/28 12:23:14;;;;;;;66.93;44.20;;;5.50;85.70;;;;;;5110076;28;20098;-65
2022/01/28 12:25:39;;;;;;;55.42;44.00;;;5.50;85.80;;;;;;5111979;28;20032;-67
2022/01/28 12:28:24;;;;;;;42.63;37.08;;;5.40;85.60;;;;;;5110050;28;20435;-66
2022/01/28 12:31:05;;;;;;;46.97;38.97;;;5.40;86.20;;;;;;5110539;28;20508;-65
2022/01/28 12:33:36;;;;;;;41.70;34.45;;;5.40;85.40;;;;;;5110255;28;20492;-65
2022/01/28 12:36:12;;;;;;;40.25;34.83;;;5.30;85.00;;;;;;5096037;28;20024;-66
2022/01/28 12:38:44;;;;;;;36.88;33.30;;;5.40;85.40;;;;;;5096171;28;20437;-65
2022/01/28 12:41:17;;;;;;;39.15;35.45;;;5.40;85.40;;;;;;5077972;28;20028;-65
2022/01/28 12:43:42;;;;;;;37.50;33.88;;;5.40;85.00;;;;;;5096269;28;20035;-65
2022/01/28 12:46:12;;;;;;;40.85;36.97;;;5.50;85.00;;;;;;5096032;28;20020;-66
2022/01/28 12:48:52;;;;;;;40.28;36.13;;;5.40;84.70;;;;;;5078024;28;20031;-67
2022/01/28 12:51:23;;;;;;;43.40;37.28;;;5.40;84.40;;;;;;5096208;28;20020;-66
2022/01/28 12:53:54;;;;;;;37.33;33.45;;;5.30;84.10;;;;;;5096265;28;20171;-65
2022/01/28 12:56:41;;;;;;;38.60;34.70;;;5.30;83.90;;;;;;5077808;28;20031;-64
2022/01/28 12:59:07;;;;;;;;;;;5.20;83.90;;;;;;5078303;28;20080;-64
2022/01/28 13:01:34;;;;;;;34.17;30.80;;;5.30;84.00;;;;;;5078162;28;19973;-65
2022/01/28 13:04:16;;;;;;;40.90;36.67;;;5.30;84.10;;;;;;5095532;28;20138;-65
2022/01/28 13:09:16;;;;;;;38.00;34.08;;;5.40;84.50;;;;;;5095907;28;20024;-65
2022/01/28 13:11:51;;;;;;;34.72;31.00;;;5.40;84.50;;;;;;5095859;28;20476;-65
2022/01/28 13:14:32;;;;;;;33.33;29.90;;;5.40;84.00;;;;;;5095776;28;20478;-66
2022/01/28 13:16:59;;;;;;;43.42;32.40;;;5.30;83.40;;;;;;5077480;28;20032;-66
2022/01/28 13:19:27;;;;;;;33.97;30.33;;;5.30;83.30;;;;;;5096042;28;20020;-67
2022/01/28 13:21:54;;;;;;;40.30;36.35;;;5.30;83.90;;;;;;5078042;28;20466;-67
2022/01/28 13:24:27;;;;;;;37.95;34.13;;;5.40;83.30;;;;;;5095245;28;20490;-66
2022/01/28 13:27:08;;;;;;;34.67;31.40;;;5.40;83.40;;;;;;5077887;28;20099;-65
2022/01/28 13:29:39;;;;;;;42.90;35.78;;;5.40;82.90;;;;;;5094972;28;20024;-63
2022/01/28 13:32:10;;;;;;;36.67;32.70;;;5.30;82.60;;;;;;5077180;28;20020;-64
2022/01/28 13:34:55;;;;;;;33.38;29.85;;;5.30;82.20;;;;;;5073761;28;20020;-65
2022/01/28 13:37:40;;;;;;;40.15;35.00;;;5.20;81.80;;;;;;5093233;28;20052;-64
2022/01/28 13:40:11;;;;;;;33.50;30.17;;;5.10;81.60;;;;;;5075486;28;20539;-64
2022/01/28 13:42:54;;;;;;;39.90;35.83;;;5.10;81.40;;;;;;5074811;28;20027;-65
2022/01/28 13:45:36;;;;;;;40.80;35.90;;;5.00;81.60;;;;;;5092800;28;20036;-65
2022/01/28 13:48:07;;;;;;;47.03;39.85;;;5.00;81.80;;;;;;5070615;28;20036;-64
2022/01/28 13:50:36;;;;;;;50.22;40.88;;;5.10;81.90;;;;;;5094401;28;20103;-65
2022/01/28 13:53:33;;;;;;;71.10;53.30;;;5.00;81.90;;;;;;5076634;28;20120;-65
2022/01/28 13:56:02;;;;;;;47.15;42.10;;;5.00;81.70;;;;;;5095928;28;20024;-66
2022/01/28 13:58:29;;;;;;;37.67;33.80;;;5.00;81.60;;;;;;5077036;28;20429;-65
2022/01/28 14:00:56;;;;;;;38.38;34.33;;;4.90;81.30;;;;;;5095251;28;20028;-65
2022/01/28 14:03:23;;;;;;;40.22;36.05;;;4.90;81.50;;;;;;5105216;28;20038;-66
2022/01/28 14:06:01;;;;;;;35.28;31.70;;;4.90;81.20;;;;;;5097778;28;20039;-65
2022/01/28 14:09:22;;;;;;;37.72;32.65;;;4.80;81.20;;;;;;5095087;28;20084;-65
2022/01/28 14:11:52;;;;;;;37.88;32.97;;;4.80;81.30;;;;;;5092872;28;20070;-64
2022/01/28 14:14:43;;;;;;;40.28;33.97;;;4.90;81.10;;;;;;5094829;28;20020;-64
2022/01/28 14:17:10;;;;;;;35.58;32.08;;;4.80;81.10;;;;;;5076441;28;20035;-65
2022/01/28 14:19:41;;;;;;;34.95;30.65;;;4.80;81.10;;;;;;5076209;28;20089;-64
2022/01/28 14:22:08;;;;;;;35.40;31.52;;;4.80;81.00;;;;;;5077088;28;20066;-64
2022/01/28 14:24:36;;;;;;;37.17;33.15;;;4.70;80.90;;;;;;5076163;28;20166;-64
2022/01/28 14:32:07;;;;;;;32.58;29.38;;;4.60;80.90;;;;;;5094112;28;20020;-64
2022/01/28 14:34:33;;;;;;;32.65;29.50;;;4.70;81.20;;;;;;5076776;28;20181;-65
2022/01/28 14:36:59;;;;;;;35.40;31.85;;;4.70;81.20;;;;;;5094093;28;20051;-64
2022/01/28 14:39:25;;;;;;;34.03;30.90;;;4.70;81.10;;;;;;5075943;28;20114;-65
2022/01/28 14:41:54;;;;;;;35.85;32.17;;;4.80;81.10;;;;;;5075896;28;20078;-65
2022/01/28 14:44:20;;;;;;;32.80;29.45;;;4.80;81.00;;;;;;5075620;28;20039;-65
2022/01/28 14:46:46;;;;;;;36.08;32.80;;;4.80;81.00;;;;;;5093804;28;20024;-66
2022/01/28 14:49:11;;;;;;;31.55;28.10;;;4.80;80.70;;;;;;5094086;28;20024;-65
2022/01/28 14:51:42;;;;;;;35.45;32.13;;;4.80;80.60;;;;;;5093928;28;20454;-64
2022/01/28 14:54:07;;;;;;;31.98;28.88;;;4.70;81.10;;;;;;5076033;28;20036;-65
2022/01/28 14:56:33;;;;;;;31.27;28.38;;;4.70;80.50;;;;;;5093806;28;20073;-64
2022/01/28 14:59:00;;;;;;;35.75;32.05;;;4.70;80.40;;;;;;5075352;28;20032;-66
2022/01/28 15:01:27;;;;;;;32.88;29.52;;;4.60;80.40;;;;;;5093712;28;20043;-64
2022/01/28 15:03:54;;;;;;;34.58;31.48;;;4.60;80.30;;;;;;5093836;28;20098;-66
2022/01/28 15:06:22;;;;;;;32.83;29.52;;;4.60;80.30;;;;;;5075465;28;20028;-64
2022/01/28 15:08:49;;;;;;;35.88;31.98;;;4.60;80.40;;;;;;5093748;28;20069;-64
2022/01/28 15:11:20;;;;;;;34.67;31.10;;;4.60;80.50;;;;;;5093790;28;20161;-65
2022/01/28 15:13:47;;;;;;;34.75;31.08;;;4.60;80.40;;;;;;5093697;28;20024;-65
2022/01/28 15:16:14;;;;;;;37.53;29.73;;;4.60;80.40;;;;;;5076197;28;20382;-65
2022/01/28 15:18:39;;;;;;;35.17;31.77;;;4.60;80.30;;;;;;5093552;28;20124;-64
2022/01/28 15:21:05;;;;;;;32.85;29.42;;;4.60;80.50;;;;;;5093467;28;20434;-65
2022/01/28 15:23:32;;;;;;;32.97;29.45;;;4.70;80.40;;;;;;5075035;28;20052;-65
2022/01/28 15:25:58;;;;;;;34.63;31.05;;;4.60;80.30;;;;;;5074851;28;20059;-65
2022/01/28 15:28:24;;;;;;;34.22;31.05;;;4.70;80.40;;;;;;5092805;28;20082;-65
2022/01/28 15:36:18;;;;;;;32.28;29.17;;;4.70;80.30;;;;;;5091750;28;20491;-63
2022/01/28 15:38:44;;;;;;;35.63;31.85;;;4.70;80.20;;;;;;5074715;28;20114;-64
2022/01/28 15:41:12;;;;;;;32.75;29.33;;;4.70;80.10;;;;;;5075152;28;20024;-64
2022/01/28 15:43:38;;;;;;;31.30;28.48;;;4.70;80.20;;;;;;5093097;28;20115;-65
2022/01/28 15:46:05;;;;;;;34.92;28.98;;;4.70;80.10;;;;;;5092481;28;20024;-64
2022/01/28 15:48:31;;;;;;;32.15;28.98;;;4.70;80.10;;;;;;5092927;28;20028;-64
2022/01/28 15:50:57;;;;;;;32.53;28.27;;;4.70;80.10;;;;;;5093356;28;20032;-65
2022/01/28 15:53:24;;;;;;;33.75;30.27;;;4.70;80.10;;;;;;5092950;28;20111;-63
2022/01/28 15:55:50;;;;;;;31.70;28.83;;;4.80;80.10;;;;;;5092798;28;20101;-64
2022/01/28 15:58:16;;;;;;;35.08;31.98;;;4.80;80.00;;;;;;5092925;28;20036;-64
2022/01/28 16:00:42;;;;;;;32.83;29.67;;;4.80;80.00;;;;;;5074786;28;20028;-64
2022/01/28 16:03:09;;;;;;;28.08;25.58;;;4.80;80.00;;;;;;5074671;28;20131;-63
2022/01/28 16:05:36;;;;;;;33.38;30.05;;;4.80;80.00;;;;;;5075028;28;20077;-64
2022/01/28 16:08:03;;;;;;;35.15;31.80;;;4.80;79.90;;;;;;5074801;28;20024;-64
2022/01/28 16:10:37;;;;;;;32.42;28.33;;;4.80;79.80;;;;;;5077654;28;20024;-63
2022/01/28 16:13:14;;;;;;;32.75;29.67;;;4.90;79.80;;;;;;5076570;28;20464;-63
2022/01/28 16:17:08;;;;;;;32.08;29.33;;;4.80;79.80;;;;;;5077101;28;20432;-64
2022/01/28 16:18:27;;;;;;;31.77;28.55;;;4.80;79.80;;;;;;5096402;28;20032;-64
2022/01/28 16:20:52;;;;;;;28.33;25.45;;;4.80;79.60;;;;;;5096658;28;20165;-63
2022/01/28 16:23:18;;;;;;;29.88;26.95;;;4.80;79.60;;;;;;5096535;28;20131;-63
2022/01/28 16:25:44;;;;;;;30.92;27.08;;;4.80;79.60;;;;;;5096740;28;20052;-63
2022/01/28 16:28:10;;;;;;;33.10;29.67;;;4.80;79.60;;;;;;5097180;28;20059;-64
2022/01/28 16:30:35;;;;;;;30.85;27.75;;;4.70;79.40;;;;;;5106114;28;20481;-64
2022/01/28 16:33:01;;;;;;;35.83;32.45;;;4.70;79.40;;;;;;5081755;28;20120;-64
2022/01/28 16:35:27;;;;;;;31.73;28.42;;;4.70;79.50;;;;;;5096684;28;20026;-63
2022/01/28 16:37:52;;;;;;;29.45;26.25;;;4.70;79.50;;;;;;5078263;28;20077;-64
2022/01/28 16:40:19;;;;;;;31.98;28.70;;;4.70;79.50;;;;;;5078715;28;20115;-64
2022/01/28 16:42:54;;;;;;;32.80;29.25;;;4.70;79.50;;;;;;5096277;28;20412;-64
2022/01/28 16:45:21;;;;;;;31.65;28.42;;;4.70;79.40;;;;;;5078404;28;20393;-63
2022/01/28 16:47:47;;;;;;;27.35;24.75;;;4.70;79.20;;;;;;5095966;28;20028;-64
2022/01/28 16:50:13;;;;;;;28.83;26.25;;;4.60;79.10;;;;;;5096434;28;20102;-63
2022/01/28 16:52:40;;;;;;;31.48;28.48;;;4.60;79.20;;;;;;5094482;28;20020;-64
2022/01/28 16:55:08;;;;;;;28.98;26.38;;;4.60;79.20;;;;;;5096017;28;20035;-64
2022/01/28 16:57:34;;;;;;;32.65;29.58;;;4.60;79.20;;;;;;5094070;28;20024;-61
2022/01/28 17:00:01;;;;;;;28.27;25.30;;;4.60;79.10;;;;;;5093651;28;20474;-61
2022/01/28 17:02:26;;;;;;;31.88;28.73;;;4.60;79.00;;;;;;5093921;28;20077;-61
2022/01/28 17:04:52;;;;;;;30.80;27.73;;;4.60;79.10;;;;;;5076266;28;20028;-60
2022/01/28 17:07:18;;;;;;;30.73;27.85;;;4.60;79.00;;;;;;5094204;28;20020;-60
2022/01/28 17:09:52;;;;;;;30.35;27.98;;;4.60;79.10;;;;;;5094221;28;20036;-61
2022/01/28 17:14:47;;;;;;;30.13;27.55;;;4.60;79.00;;;;;;5093842;28;20032;-61
2022/01/28 17:17:14;;;;;;;30.02;27.48;;;4.60;79.10;;;;;;5093975;28;20473;-60
2022/01/28 17:19:42;;;;;;;28.95;26.05;;;4.70;79.20;;;;;;5094321;28;20157;-59
2022/01/28 17:22:08;;;;;;;32.20;29.35;;;4.60;79.00;;;;;;5094289;28;20566;-60
2022/01/28 17:24:36;;;;;;;30.67;28.15;;;4.60;79.10;;;;;;5073128;28;20048;-61
2022/01/28 17:27:05;;;;;;;30.58;27.70;;;4.60;79.00;;;;;;5094117;28;20020;-60
2022/01/28 17:29:31;;;;;;;32.25;28.52;;;4.60;79.20;;;;;;5093913;28;20024;-59
2022/01/28 17:31:57;;;;;;;31.90;28.35;;;4.60;79.10;;;;;;5093932;28;20036;-61
2022/01/28 17:34:22;;;;;;;33.80;30.35;;;4.60;79.10;;;;;;5094011;28;20035;-61
2022/01/28 17:36:48;;;;;;;45.00;35.55;;;4.60;79.20;;;;;;5075770;28;20032;-60
2022/01/28 17:39:14;;;;;;;58.55;40.97;;;4.60;79.20;;;;;;5093939;28;20055;-62
2022/01/28 17:41:41;;;;;;;105.40;67.93;;;4.60;79.20;;;;;;5093673;28;20085;-61
2022/01/28 17:44:07;;;;;;;100.20;62.90;;;4.60;79.20;;;;;;5093764;28;20035;-60
2022/01/28 17:46:33;;;;;;;102.35;64.43;;;4.60;79.20;;;;;;5075290;28;20528;-62
2022/01/28 17:48:59;;;;;;;102.75;63.22;;;4.60;79.20;;;;;;5093570;28;20058;-61
2022/01/28 17:51:27;;;;;;;113.45;65.00;;;4.50;79.20;;;;;;5093844;28;20419;-61
2022/01/28 17:53:53;;;;;;;95.00;64.13;;;4.50;79.30;;;;;;5075223;28;20114;-60
2022/01/28 17:56:18;;;;;;;63.55;43.38;;;4.40;79.30;;;;;;5093325;28;20445;-60
2022/01/28 17:58:44;;;;;;;96.13;51.08;;;4.40;79.30;;;;;;5075499;28;20027;-59
2022/01/28 18:01:10;;;;;;;71.45;50.83;;;4.40;79.50;;;;;;5093440;28;20093;-60
2022/01/28 18:03:36;;;;;;;74.60;51.88;;;4.40;79.50;;;;;;5093469;28;20111;-63
2022/01/28 18:06:02;;;;;;;93.10;57.90;;;4.40;79.60;;;;;;5093204;28;20028;-61
2022/01/28 18:08:32;;;;;;;119.30;67.45;;;4.40;79.60;;;;;;5091830;28;20493;-59
2022/01/28 18:10:59;;;;;;;110.47;59.90;;;4.40;79.70;;;;;;5072701;28;20454;-61
2022/01/28 18:13:29;;;;;;;91.57;62.20;;;4.40;79.80;;;;;;5092672;28;20470;-60
2022/01/28 18:15:56;;;;;;;112.95;68.47;;;4.40;79.90;;;;;;5093374;28;20028;-61
2022/01/28 18:18:22;;;;;;;116.63;66.95;;;4.40;79.80;;;;;;5092993;28;20040;-60
2022/01/28 18:20:48;;;;;;;129.50;68.70;;;4.40;79.90;;;;;;5093111;28;20055;-62
2022/01/28 18:23:14;;;;;;;116.30;67.65;;;4.40;80.00;;;;;;5074607;28;20048;-60
2022/01/28 18:25:40;;;;;;;125.72;62.78;;;4.40;80.00;;;;;;5092888;28;20063;-60
2022/01/28 18:28:06;;;;;;;110.18;70.00;;;4.40;80.10;;;;;;5090299;28;20470;-59
2022/01/28 18:30:32;;;;;;;128.82;68.55;;;4.40;80.20;;;;;;5092953;28;20030;-60
2022/01/28 18:32:58;;;;;;;111.03;67.55;;;4.30;80.20;;;;;;5092796;28;20024;-60
2022/01/28 18:35:24;;;;;;;95.50;56.47;;;4.30;80.20;;;;;;5074564;28;20397;-60
2022/01/28 18:37:50;;;;;;;65.80;48.90;;;4.30;80.30;;;;;;5074548;28;20094;-60